Time;durP1;ratioP1;P1;durP2;ratioP2;P2;SDS_P1;SDS_P2;PMS_P1;PMS_P2;Temp;Humidity;BMP_temperature;BMP_pressure;BME280_temperature;BME280_humidity;BME280_pressure;Samples;Min_cycle;Max_cycle;Signal;HPM_P1;HPM_P2
2022/09/14 00:01:42;;;;;;;12.75;9.43;;;;;;;12.93;90.77;100026.03;1773115;79;21078;-87
2022/09/14 00:04:11;;;;;;;9.98;9.08;;;;;;;12.92;90.72;100024.38;1795304;79;20872;-88
2022/09/14 00:06:38;;;;;;;10.28;8.70;;;;;;;12.91;90.64;100027.46;1805520;79;21078;-88
2022/09/14 00:09:10;;;;;;;13.05;9.73;;;;;;;12.91;90.59;100031.41;1794849;79;20947;-88
2022/09/14 00:11:36;;;;;;;10.03;8.75;;;;;;;12.90;90.62;100031.06;1804321;78;20924;-88
2022/09/14 00:14:04;;;;;;;11.05;9.43;;;;;;;12.91;90.59;100037.16;1792195;78;21250;-87
2022/09/14 00:16:34;;;;;;;13.30;9.33;;;;;;;12.90;90.56;100033.70;1663621;82;20971;-89
2022/09/14 00:20:14;;;;;;;10.65;9.23;;;;;;;12.95;90.62;100042.55;1856430;76;22302;-89
2022/09/14 00:22:40;;;;;;;11.40;9.05;;;;;;;12.91;90.66;100042.42;1822901;78;20974;-89
2022/09/14 00:25:08;;;;;;;10.10;9.15;;;;;;;12.89;90.60;100037.27;1823233;78;21338;-88
2022/09/14 00:27:34;;;;;;;10.58;9.23;;;;;;;12.89;90.54;100046.48;1822810;78;20844;-88
2022/09/14 00:30:01;;;;;;;10.95;9.78;;;;;;;12.86;90.51;100042.30;1823374;78;20966;-88
2022/09/14 00:32:29;;;;;;;11.88;9.68;;;;;;;12.85;90.54;100049.02;1822993;78;21333;-86
2022/09/14 00:34:55;;;;;;;11.83;9.98;;;;;;;12.83;90.56;100049.63;1823120;78;20903;-88
2022/09/14 00:37:22;;;;;;;11.73;9.03;;;;;;;12.84;90.61;100052.59;1823299;78;21224;-88
2022/09/14 00:39:53;;;;;;;15.15;9.83;;;;;;;12.83;90.65;100053.56;1823420;78;21362;-88
2022/09/14 00:42:19;;;;;;;15.13;10.58;;;;;;;12.81;90.59;100061.58;1822824;78;20908;-88
2022/09/14 00:44:53;;;;;;;14.40;10.05;;;;;;;12.79;90.65;100056.08;1823125;78;20994;-89
2022/09/14 00:47:20;;;;;;;10.00;9.10;;;;;;;12.77;90.69;100055.36;1823395;78;20939;-88
2022/09/14 00:49:46;;;;;;;11.57;10.30;;;;;;;12.77;90.77;100054.88;1823227;78;20868;-88
2022/09/14 00:52:24;;;;;;;10.50;9.50;;;;;;;12.77;90.87;100056.19;1823185;78;20852;-88
2022/09/14 00:54:57;;;;;;;14.35;10.38;;;;;;;12.77;90.88;100054.88;1823067;78;20974;-89
2022/09/14 00:57:28;;;;;;;11.43;9.40;;;;;;;12.77;90.88;100058.82;1823074;78;28151;-88
2022/09/14 00:59:54;;;;;;;9.53;8.70;;;;;;;12.77;90.91;100053.55;1823047;78;20919;-88
2022/09/14 01:02:22;;;;;;;10.20;9.20;;;;;;;12.77;90.90;100054.05;1791639;78;21180;-89
2022/09/14 01:04:49;;;;;;;12.50;8.53;;;;;;;12.76;90.78;100055.84;1822961;78;20889;-89
2022/09/14 01:07:31;;;;;;;11.20;8.80;;;;;;;12.74;90.80;100053.81;1823544;78;20879;-89
2022/09/14 01:10:24;;;;;;;10.08;9.00;;;;;;;12.73;90.78;100051.28;1824906;78;20884;-90
2022/09/14 01:13:25;;;;;;;9.35;8.40;;;;;;;12.71;90.74;100054.03;1823539;78;20990;-87
2022/09/14 01:16:08;;;;;;;10.25;9.18;;;;;;;12.70;90.75;100050.22;1823027;78;21145;-87
2022/09/14 01:18:45;;;;;;;9.68;8.78;;;;;;;12.69;90.79;100053.80;1823348;78;20938;-86
2022/09/14 01:21:28;;;;;;;8.90;8.10;;;;;;;12.68;90.83;100054.77;1826425;78;21453;-87
2022/09/14 01:24:23;;;;;;;10.50;8.55;;;;;;;12.67;90.88;100051.76;1826320;78;20934;-87
2022/09/14 01:27:07;;;;;;;12.55;9.08;;;;;;;12.66;90.95;100050.93;1826405;78;21638;-88
2022/09/14 01:30:05;;;;;;;9.98;9.03;;;;;;;12.66;90.95;100052.24;1826479;78;21384;-88
2022/09/14 01:32:48;;;;;;;10.93;9.13;;;;;;;12.66;90.96;100053.56;1825738;78;20880;-87
2022/09/14 01:35:21;;;;;;;12.37;9.08;;;;;;;12.65;90.94;100055.36;1826156;78;21345;-87
2022/09/14 01:38:06;;;;;;;10.53;8.35;;;;;;;12.66;90.99;100061.45;1825546;78;21041;-87
2022/09/14 01:40:39;;;;;;;10.50;9.50;;;;;;;12.66;90.93;100053.56;1825932;78;20962;-88
2022/09/14 01:43:24;;;;;;;10.10;8.58;;;;;;;12.65;90.90;100063.25;1825833;78;21129;-87
2022/09/14 01:45:55;;;;;;;9.23;8.08;;;;;;;12.65;90.89;100061.94;1825779;78;20943;-88
2022/09/14 01:48:26;;;;;;;8.55;7.65;;;;;;;12.64;90.86;100056.30;1825828;78;21389;-87
2022/09/14 01:50:57;;;;;;;7.53;6.53;;;;;;;12.64;90.89;100062.88;1825577;78;20903;-88
2022/09/14 01:53:34;;;;;;;7.17;6.47;;;;;;;12.63;90.81;100062.53;1825872;78;21064;-89
2022/09/14 01:56:20;;;;;;;6.92;6.40;;;;;;;12.63;90.74;100061.22;1825799;78;21131;-88
2022/09/14 01:58:59;;;;;;;6.20;4.87;;;;;;;12.63;90.59;100059.07;1824426;78;21402;-88
2022/09/14 02:01:37;;;;;;;6.87;6.28;;;;;;;12.61;90.52;100069.70;1822358;78;20879;-87
2022/09/14 02:04:07;;;;;;;6.53;5.20;;;;;;;12.62;90.37;100067.91;1824548;78;20947;-87
2022/09/14 02:06:42;;;;;;;7.10;4.62;;;;;;;12.61;90.32;100066.24;1825090;78;20907;-87
2022/09/14 02:09:11;;;;;;;5.42;4.78;;;;;;;12.59;90.15;100072.92;1825242;78;21125;-87
2022/09/14 02:11:38;;;;;;;7.53;4.85;;;;;;;12.57;90.05;100065.62;1825132;78;21334;-87
2022/09/14 02:14:04;;;;;;;5.35;4.80;;;;;;;12.55;90.07;100066.22;1825196;78;21349;-86
2022/09/14 02:16:31;;;;;;;5.40;4.25;;;;;;;12.55;90.12;100074.59;1797643;78;21483;-87
2022/09/14 02:19:00;;;;;;;7.33;4.67;;;;;;;12.54;90.14;100076.85;1824271;78;20919;-87
2022/09/14 02:21:30;;;;;;;5.10;4.60;;;;;;;12.54;90.24;100075.08;1821820;78;21406;-88
2022/09/14 02:23:58;;;;;;;5.80;4.67;;;;;;;12.54;90.30;100072.45;1821710;78;20875;-87
2022/09/14 02:26:24;;;;;;;5.90;5.30;;;;;;;12.54;90.34;100081.66;1822505;78;20955;-87
2022/09/14 02:28:54;;;;;;;6.37;5.55;;;;;;;12.54;90.32;100080.80;1791282;78;20876;-87
2022/09/14 02:31:49;;;;;;;4.95;4.03;;;;;;;12.52;90.22;100086.20;1823084;78;20950;-88
2022/09/14 02:34:35;;;;;;;;;;;;;;;12.49;90.04;100081.64;1823924;78;21249;-86
2022/09/14 02:37:18;;;;;;;2.12;2.02;;;;;;;12.44;89.69;100081.99;1821713;78;20368;-86
2022/09/14 02:40:12;;;;;;;3.65;1.90;;;;;;;12.38;89.34;100081.14;1821473;78;20966;-87
2022/09/14 02:42:59;;;;;;;2.40;1.70;;;;;;;12.32;89.05;100092.14;1821783;78;20928;-88
2022/09/14 02:45:35;;;;;;;2.98;1.57;;;;;;;12.28;88.82;100103.36;1822106;78;21009;-88
2022/09/14 02:48:34;;;;;;;2.67;1.30;;;;;;;12.26;88.71;100101.80;1821121;78;21250;-88
2022/09/14 02:51:09;;;;;;;3.00;1.67;;;;;;;12.23;88.52;100101.56;1806725;78;20911;-87
2022/09/14 02:54:12;;;;;;;1.87;1.30;;;;;;;12.21;88.37;100117.92;1821575;78;20875;-87
2022/09/14 02:56:38;;;;;;;1.30;1.10;;;;;;;12.18;88.37;100112.88;1821586;78;20840;-87
2022/09/14 02:59:05;;;;;;;4.62;1.30;;;;;;;12.13;88.33;100113.22;1821729;78;20919;-87
2022/09/14 03:01:33;;;;;;;2.27;0.95;;;;;;;12.11;88.31;100113.81;1821747;78;21133;-88
2022/09/14 03:04:00;;;;;;;1.22;1.07;;;;;;;12.10;88.34;100117.89;1821564;78;20907;-88
2022/09/14 03:06:26;;;;;;;3.08;0.80;;;;;;;12.08;88.30;100114.53;1821755;78;20872;-87
2022/09/14 03:08:53;;;;;;;2.05;0.82;;;;;;;12.06;88.29;100119.90;1821603;78;20967;-88
2022/09/14 03:11:19;;;;;;;2.02;0.93;;;;;;;12.03;88.20;100121.45;1821555;78;21418;-88
2022/09/14 03:13:46;;;;;;;1.77;0.70;;;;;;;12.00;88.24;100115.92;1822230;78;21127;-87
2022/09/14 03:16:15;;;;;;;4.30;1.00;;;;;;;11.98;88.29;100119.62;1823404;78;20951;-88
2022/09/14 03:18:41;;;;;;;0.78;0.78;;;;;;;11.97;88.30;100114.84;1822301;78;20946;-89
2022/09/14 03:21:11;;;;;;;4.03;0.70;;;;;;;11.96;88.35;100105.75;1827310;78;20929;-88
2022/09/14 03:23:40;;;;;;;0.90;0.90;;;;;;;11.94;88.30;100107.65;1828012;78;20868;-88
2022/09/14 03:26:11;;;;;;;1.05;0.90;;;;;;;11.93;88.31;100109.93;1827805;78;21268;-87
2022/09/14 03:28:37;;;;;;;2.62;1.10;;;;;;;11.91;88.35;100106.58;1827891;76;20905;-88
2022/09/14 03:31:06;;;;;;;2.58;0.90;;;;;;;11.88;88.44;100099.77;1797045;78;20916;-88
2022/09/14 03:33:32;;;;;;;1.50;1.07;;;;;;;11.88;88.62;100103.70;1825365;78;21409;-88
2022/09/14 03:35:59;;;;;;;1.22;0.90;;;;;;;11.88;88.79;100102.88;1825166;78;20924;-88
2022/09/14 03:38:28;;;;;;;1.87;1.02;;;;;;;11.89;88.91;100099.28;1825042;78;21092;-87
2022/09/14 03:40:56;;;;;;;2.02;1.62;;;;;;;11.88;89.00;100108.95;1825059;78;20925;-88
2022/09/14 03:43:23;;;;;;;2.92;2.10;;;;;;;11.88;89.14;100110.27;1824858;78;20972;-88
2022/09/14 03:45:49;;;;;;;3.95;3.00;;;;;;;11.89;89.25;100111.10;1826593;76;21014;-88
2022/09/14 03:48:16;;;;;;;5.75;3.95;;;;;;;11.89;89.36;100111.10;1827800;76;20845;-88
2022/09/14 03:50:42;;;;;;;6.97;5.05;;;;;;;11.88;89.56;100112.90;1824992;78;21117;-88
2022/09/14 03:53:09;;;;;;;5.40;4.42;;;;;;;11.86;89.72;100102.95;1824817;78;20877;-88
2022/09/14 03:55:35;;;;;;;7.70;4.42;;;;;;;11.92;89.90;100113.52;1824878;78;20908;-88
2022/09/14 03:58:02;;;;;;;6.72;3.67;;;;;;;11.94;90.04;100112.91;1824879;78;20975;-88
2022/09/14 04:00:29;;;;;;;4.20;3.67;;;;;;;11.96;90.10;100121.52;1824830;78;20853;-88
2022/09/14 04:02:55;;;;;;;3.70;3.40;;;;;;;11.98;90.14;100120.48;1824952;78;21222;-88
2022/09/14 04:05:22;;;;;;;4.50;3.02;;;;;;;12.01;90.17;100123.35;1824757;78;20877;-87
2022/09/14 04:07:50;;;;;;;3.95;3.05;;;;;;;12.05;90.20;100129.20;1824725;78;21341;-87
2022/09/14 04:10:16;;;;;;;3.15;2.85;;;;;;;12.09;90.16;100125.39;1824786;78;20925;-87
2022/09/14 04:12:43;;;;;;;4.20;3.55;;;;;;;12.14;90.13;100131.14;1824717;78;21485;-89
2022/09/14 04:15:09;;;;;;;6.70;4.92;;;;;;;12.19;90.08;100131.66;1824989;78;21103;-88
2022/09/14 04:17:36;;;;;;;15.38;7.05;;;;;;;12.23;90.02;100133.94;1824768;78;21291;-88
2022/09/14 04:20:03;;;;;;;6.97;3.90;;;;;;;12.28;90.05;100130.97;1823325;78;21006;-88
2022/09/14 04:22:32;;;;;;;4.20;3.80;;;;;;;12.35;89.97;100136.60;1821770;78;20931;-86
2022/09/14 04:24:59;;;;;;;8.73;4.28;;;;;;;12.40;89.81;100137.91;1821619;78;21400;-86
2022/09/14 04:27:25;;;;;;;5.72;4.35;;;;;;;12.46;89.59;100141.05;1821536;78;21250;-86
2022/09/14 04:29:52;;;;;;;7.87;4.25;;;;;;;12.51;89.30;100154.20;1821678;78;20966;-87
2022/09/14 04:32:18;;;;;;;4.97;4.12;;;;;;;12.55;89.02;100154.82;1821687;78;21382;-88
2022/09/14 04:34:45;;;;;;;12.43;4.47;;;;;;;12.56;88.64;100154.72;1821552;78;20872;-87
2022/09/14 04:37:11;;;;;;;10.32;4.08;;;;;;;12.57;88.36;100163.44;1821647;78;20979;-87
2022/09/14 04:39:38;;;;;;;6.67;4.50;;;;;;;12.58;88.04;100162.02;1821608;78;21225;-87
2022/09/14 04:42:06;;;;;;;7.45;4.33;;;;;;;12.58;87.87;100169.05;1821694;78;20887;-87
2022/09/14 04:44:34;;;;;;;5.08;4.03;;;;;;;12.59;87.66;100173.37;1821608;78;20911;-86
2022/09/14 04:47:01;;;;;;;5.62;4.05;;;;;;;12.58;87.48;100177.80;1821433;78;20892;-88
2022/09/14 04:49:28;;;;;;;9.10;5.15;;;;;;;12.58;87.42;100177.80;1821467;78;20887;-87
2022/09/14 04:51:54;;;;;;;7.55;5.87;;;;;;;12.56;87.30;100177.52;1821597;78;21737;-87
2022/09/14 04:54:21;;;;;;;9.83;6.62;;;;;;;12.54;87.32;100174.17;1821332;78;21013;-87
2022/09/14 04:56:47;;;;;;;10.10;7.30;;;;;;;12.54;87.32;100172.86;1821559;78;20860;-86
2022/09/14 04:59:14;;;;;;;12.35;7.78;;;;;;;12.52;87.24;100171.67;1821474;78;21412;-87
2022/09/14 05:01:43;;;;;;;10.10;7.85;;;;;;;12.52;87.22;100174.31;1821514;78;20931;-89
2022/09/14 05:04:10;;;;;;;13.78;8.05;;;;;;;12.52;87.19;100181.37;1824908;77;21993;-87
2022/09/14 05:06:39;;;;;;;14.13;7.72;;;;;;;12.53;87.32;100176.45;1819024;78;20910;-87
2022/09/14 05:09:16;;;;;;;7.62;6.90;;;;;;;12.54;87.30;100176.34;1822295;78;20915;-86
2022/09/14 05:11:43;;;;;;;8.90;6.62;;;;;;;12.56;87.42;100177.08;1821980;78;20927;-88
2022/09/14 05:14:12;;;;;;;14.98;7.47;;;;;;;12.58;87.64;100184.38;1822064;78;21002;-86
2022/09/14 05:16:39;;;;;;;6.25;5.28;;;;;;;12.60;87.50;100178.49;1821966;78;21301;-85
2022/09/14 05:19:11;;;;;;;5.15;4.47;;;;;;;12.62;87.34;100182.33;1822097;78;20900;-87
2022/09/14 05:21:38;;;;;;;8.88;4.05;;;;;;;12.62;87.16;100183.16;1825470;78;20880;-88
2022/09/14 05:24:13;;;;;;;8.45;4.67;;;;;;;12.63;86.95;100186.66;1825693;77;20951;-88
2022/09/14 05:26:41;;;;;;;8.18;5.30;;;;;;;12.65;86.79;100182.12;1825028;78;20960;-88
2022/09/14 05:29:12;;;;;;;8.63;5.45;;;;;;;12.67;86.61;100189.39;1825671;78;21175;-89
2022/09/14 05:31:40;;;;;;;7.72;6.35;;;;;;;12.71;86.62;100187.38;1825544;77;21013;-89
2022/09/14 05:34:09;;;;;;;12.80;8.20;;;;;;;12.76;86.51;100194.44;1825677;77;20868;-88
2022/09/14 05:36:37;;;;;;;9.50;6.67;;;;;;;12.78;86.44;100185.50;1825825;78;20922;-87
2022/09/14 05:39:05;;;;;;;12.18;7.25;;;;;;;12.82;86.39;100190.86;1825765;77;21602;-89
2022/09/14 05:41:34;;;;;;;9.23;6.80;;;;;;;12.88;86.24;100190.05;1825990;78;21447;-88
2022/09/14 05:44:01;;;;;;;11.18;6.60;;;;;;;12.92;86.11;100194.13;1825353;78;21427;-88
2022/09/14 05:46:31;;;;;;;9.38;6.20;;;;;;;12.97;86.03;100188.02;1825849;78;20914;-86
2022/09/14 05:48:58;;;;;;;9.30;7.05;;;;;;;13.02;86.01;100191.12;1825889;78;20848;-88
2022/09/14 05:51:26;;;;;;;10.20;7.67;;;;;;;13.09;85.91;100188.86;1826068;78;20978;-89
2022/09/14 05:53:56;;;;;;;7.40;6.62;;;;;;;13.13;85.70;100194.25;1826752;77;21343;-89
2022/09/14 05:56:24;;;;;;;10.80;7.65;;;;;;;13.16;85.47;100201.90;1828571;76;20911;-89
2022/09/14 05:58:51;;;;;;;11.83;7.97;;;;;;;13.16;85.29;100200.13;1826654;78;21053;-89
2022/09/14 06:01:23;;;;;;;13.85;10.05;;;;;;;13.17;85.13;100203.11;1826741;78;20884;-89
2022/09/14 06:03:52;;;;;;;12.03;9.85;;;;;;;13.18;84.90;100207.41;1827437;77;20911;-89
2022/09/14 06:06:19;;;;;;;11.25;8.73;;;;;;;13.20;84.78;100206.80;1827953;77;21364;-90
2022/09/14 06:08:51;;;;;;;19.37;15.70;;;;;;;13.21;84.67;100209.81;1827564;78;20915;-86
2022/09/14 06:11:20;;;;;;;11.73;9.55;;;;;;;13.23;84.57;100217.61;1828407;76;20966;-87
2022/09/14 06:13:47;;;;;;;9.58;7.50;;;;;;;13.26;84.47;100216.05;1800461;78;20942;-89
2022/09/14 06:16:15;;;;;;;9.75;7.10;;;;;;;13.28;84.27;100220.74;1827427;77;20919;-89
2022/09/14 06:18:43;;;;;;;7.55;6.75;;;;;;;13.30;84.07;100225.91;1826819;77;21251;-89
2022/09/14 06:21:13;;;;;;;7.05;5.58;;;;;;;13.31;83.83;100228.39;1826678;77;20961;-90
2022/09/14 06:23:40;;;;;;;7.17;5.67;;;;;;;13.32;83.62;100219.55;1800863;77;21136;-88
2022/09/14 06:26:07;;;;;;;7.95;5.58;;;;;;;13.36;83.43;100221.45;1828023;77;21479;-88
2022/09/14 06:28:34;;;;;;;7.17;5.70;;;;;;;13.40;83.38;100217.63;1827681;77;21130;-88
2022/09/14 06:31:03;;;;;;;8.88;6.80;;;;;;;13.44;83.26;100218.58;1827880;77;21080;-89
2022/09/14 06:33:30;;;;;;;10.65;6.28;;;;;;;13.52;83.08;100225.89;1799739;78;20864;-87
2022/09/14 06:36:03;;;;;;;10.85;7.35;;;;;;;13.59;83.05;100233.67;1827807;77;20895;-87
2022/09/14 06:38:30;;;;;;;9.48;6.47;;;;;;;13.67;82.97;100235.68;1828349;77;20951;-91
2022/09/14 06:40:59;;;;;;;8.23;6.60;;;;;;;13.75;82.46;100233.28;1827639;76;20887;-84
2022/09/14 06:43:27;;;;;;;79.27;71.10;;;;;;;13.81;82.24;100230.17;1827285;77;21498;-86
2022/09/14 06:46:17;;;;;;;22.30;19.92;;;;;;;13.86;82.12;100235.07;1826942;77;21011;-85
2022/09/14 06:48:53;;;;;;;19.23;16.93;;;;;;;13.91;81.78;100242.61;1826684;77;21923;-86
2022/09/14 06:51:30;;;;;;;11.80;10.58;;;;;;;13.93;81.40;100243.33;1825793;78;20884;-86
2022/09/14 06:54:00;;;;;;;11.75;8.33;;;;;;;13.95;81.29;100245.36;1825880;77;21297;-89
2022/09/14 06:56:30;;;;;;;11.55;9.35;;;;;;;13.98;81.17;100249.05;1826366;78;21227;-85
2022/09/14 06:58:57;;;;;;;8.83;8.03;;;;;;;14.02;80.98;100251.81;1826087;77;20887;-86
2022/09/14 07:01:24;;;;;;;9.80;7.50;;;;;;;14.06;80.92;100244.84;1826272;77;21345;-88
2022/09/14 07:03:51;;;;;;;9.50;7.37;;;;;;;14.12;80.42;100247.94;1773731;78;21007;-88
2022/09/14 07:06:22;;;;;;;9.38;8.35;;;;;;;14.15;80.03;100247.71;1826902;78;21365;-87
2022/09/14 07:08:49;;;;;;;8.73;7.42;;;;;;;14.19;79.78;100248.66;1828159;78;21144;-87
2022/09/14 07:11:18;;;;;;;8.38;7.42;;;;;;;14.22;79.49;100248.88;1826763;77;20868;-86
2022/09/14 07:13:46;;;;;;;8.10;7.25;;;;;;;14.27;79.45;100252.83;1827114;77;20872;-88
2022/09/14 07:16:13;;;;;;;6.95;6.33;;;;;;;14.31;79.01;100245.48;1799258;78;21463;-87
2022/09/14 07:18:40;;;;;;;8.75;7.45;;;;;;;14.35;78.89;100239.49;1826611;78;20926;-88
2022/09/14 07:21:14;;;;;;;8.58;6.70;;;;;;;14.44;78.54;100244.84;1826090;77;21350;-87
2022/09/14 07:23:43;;;;;;;25.15;22.67;;;;;;;14.51;78.43;100250.45;1826611;78;20820;-89
2022/09/14 07:26:22;;;;;;;16.42;14.78;;;;;;;14.57;77.90;100247.83;1826546;78;20923;-88
2022/09/14 07:29:00;;;;;;;9.53;8.63;;;;;;;14.61;77.57;100255.85;1826954;78;20852;-88
2022/09/14 07:31:31;;;;;;;15.90;11.93;;;;;;;14.66;77.54;100248.38;1826467;78;20958;-88
2022/09/14 07:34:03;;;;;;;9.90;8.90;;;;;;;14.80;76.41;100256.47;1826466;78;21120;-88
2022/09/14 07:36:33;;;;;;;9.98;7.22;;;;;;;14.80;76.41;100256.47;1826788;78;23881;-87
2022/09/14 07:39:00;;;;;;;9.88;7.72;;;;;;;14.88;76.44;100257.98;1827641;78;20898;-88
2022/09/14 07:41:28;;;;;;;8.35;6.87;;;;;;;15.00;76.33;100257.43;1827673;78;20896;-88
2022/09/14 07:43:59;;;;;;;9.65;7.15;;;;;;;15.12;75.74;100252.45;1827985;77;20946;-88
2022/09/14 07:46:27;;;;;;;7.67;6.97;;;;;;;15.24;75.22;100257.16;1827635;78;21174;-89
2022/09/14 07:48:57;;;;;;;7.75;7.05;;;;;;;15.36;74.77;100252.62;1825269;78;20962;-87
2022/09/14 07:51:24;;;;;;;6.90;6.25;;;;;;;15.49;74.35;100252.74;1826061;78;20919;-88
2022/09/14 07:53:51;;;;;;;6.15;5.58;;;;;;;15.61;73.80;100257.47;1826266;78;20989;-86
2022/09/14 07:56:18;;;;;;;7.17;6.58;;;;;;;15.71;73.37;100261.48;1826198;78;20880;-89
2022/09/14 07:58:45;;;;;;;16.42;6.47;;;;;;;15.72;72.60;100260.05;1825955;78;21123;-88
2022/09/14 08:01:16;;;;;;;7.45;6.45;;;;;;;15.74;71.89;100255.95;1826046;78;21526;-88
2022/09/14 08:03:45;;;;;;;7.22;6.53;;;;;;;15.70;71.23;100259.80;1826419;78;20962;-87
2022/09/14 08:06:18;;;;;;;7.00;6.40;;;;;;;15.69;71.25;100258.94;1825864;78;20919;-88
2022/09/14 08:08:46;;;;;;;7.70;6.90;;;;;;;15.70;71.23;100259.30;1826451;78;20927;-87
2022/09/14 08:11:29;;;;;;;7.25;5.92;;;;;;;15.74;71.18;100255.46;1826249;78;21849;-88
2022/09/14 08:14:02;;;;;;;9.55;6.85;;;;;;;15.82;71.25;100255.27;1826023;78;21401;-89
2022/09/14 08:16:30;;;;;;;6.80;5.92;;;;;;;15.90;70.53;100253.63;1825551;78;20915;-88
2022/09/14 08:19:00;;;;;;;6.70;5.97;;;;;;;16.00;70.13;100254.95;1825965;78;20875;-88
2022/09/14 08:21:28;;;;;;;7.15;6.45;;;;;;;16.13;69.75;100260.83;1824733;78;20919;-87
2022/09/14 08:23:56;;;;;;;7.03;6.33;;;;;;;16.25;69.22;100268.64;1822532;78;21197;-87
2022/09/14 08:26:25;;;;;;;6.58;5.95;;;;;;;16.37;68.90;100265.73;1821855;78;20982;-87
2022/09/14 08:28:51;;;;;;;6.55;5.95;;;;;;;16.45;68.38;100261.55;1821890;78;20920;-89
2022/09/14 08:31:24;;;;;;;5.75;5.08;;;;;;;16.51;68.15;100258.36;1821912;78;21016;-88
2022/09/14 08:33:58;;;;;;;56.15;50.45;;;;;;;16.54;68.05;100260.25;1822016;78;21776;-89
2022/09/14 08:36:28;;;;;;;20.57;18.32;;;;;;;16.58;67.31;100258.14;1822114;78;21133;-88
2022/09/14 08:38:55;;;;;;;16.95;15.18;;;;;;;16.56;67.27;100258.30;1822376;78;20955;-84
2022/09/14 08:41:46;;;;;;;12.68;9.23;;;;;;;16.57;67.12;100261.28;1823534;78;20919;-85
2022/09/14 08:44:20;;;;;;;7.03;6.42;;;;;;;16.55;66.99;100254.45;1823611;78;20955;-85
2022/09/14 08:46:58;;;;;;;9.08;6.85;;;;;;;16.51;66.95;100256.54;1824283;78;20880;-84
2022/09/14 08:50:05;;;;;;;7.55;6.80;;;;;;;16.48;66.76;100260.80;1823820;78;21148;-83
2022/09/14 08:52:37;;;;;;;6.03;5.42;;;;;;;16.45;66.75;100258.44;1784073;80;21063;-84
2022/09/14 08:55:23;;;;;;;7.42;6.72;;;;;;;16.45;67.19;100262.41;1784032;79;21437;-84
2022/09/14 08:58:04;;;;;;;6.62;6.03;;;;;;;16.46;67.43;100257.95;1783738;80;21446;-85
2022/09/14 09:00:55;;;;;;;6.20;5.60;;;;;;;16.44;67.06;100258.57;1784105;79;20976;-89
2022/09/14 09:03:49;;;;;;;8.18;6.12;;;;;;;16.40;67.25;100261.14;1783987;80;22739;-86
2022/09/14 09:06:48;;;;;;;7.20;6.60;;;;;;;16.32;67.33;100263.17;1785171;79;20937;-87
2022/09/14 09:09:43;;;;;;;7.95;7.22;;;;;;;16.28;67.73;100263.09;1782517;79;21043;-88
2022/09/14 09:12:33;;;;;;;9.60;7.33;;;;;;;16.26;68.21;100260.58;1783610;80;20952;-87
2022/09/14 09:15:01;;;;;;;8.25;6.28;;;;;;;16.24;67.73;100269.62;1782434;79;20972;-88
2022/09/14 09:17:40;;;;;;;24.05;21.87;;;;;;;16.21;67.73;100272.06;1783126;79;21989;-89
2022/09/14 09:20:27;;;;;;;23.02;20.57;;;;;;;16.20;67.77;100269.05;1782743;79;21371;-88
2022/09/14 09:23:14;;;;;;;11.93;10.72;;;;;;;16.20;67.99;100268.22;1761887;79;21508;-89
2022/09/14 09:25:58;;;;;;;9.50;8.68;;;;;;;16.16;68.17;100265.86;1762854;79;20939;-88
2022/09/14 09:28:27;;;;;;;9.13;8.05;;;;;;;16.13;68.20;100271.91;1798713;79;20915;-89
2022/09/14 09:30:56;;;;;;;8.03;6.78;;;;;;;16.11;68.29;100280.45;1798589;78;21227;-87
2022/09/14 09:33:26;;;;;;;7.40;6.35;;;;;;;16.10;68.72;100280.13;1798648;79;20939;-88
2022/09/14 09:36:00;;;;;;;10.05;6.83;;;;;;;16.10;68.72;100280.13;1796826;78;20911;-90
2022/09/14 09:38:29;;;;;;;6.58;6.00;;;;;;;16.08;68.49;100284.71;1797397;77;20923;-89
2022/09/14 09:41:13;;;;;;;7.95;6.05;;;;;;;16.05;68.58;100288.47;1798685;79;20891;-89
2022/09/14 09:44:05;;;;;;;6.50;5.92;;;;;;;16.04;68.69;100284.63;1800549;79;21224;-89
2022/09/14 09:46:42;;;;;;;9.50;7.87;;;;;;;16.04;68.72;100292.07;1800720;78;20935;-87
2022/09/14 09:49:36;;;;;;;11.00;9.63;;;;;;;16.03;68.55;100287.77;1796346;77;20978;-88
2022/09/14 09:52:15;;;;;;;6.72;5.80;;;;;;;16.03;68.75;100296.16;1798583;78;20888;-88
2022/09/14 09:54:49;;;;;;;6.45;5.85;;;;;;;16.05;68.86;100288.93;1799221;79;20942;-88
2022/09/14 09:57:29;;;;;;;8.28;6.10;;;;;;;16.05;68.86;100288.93;1799025;79;21290;-88
2022/09/14 10:00:19;;;;;;;6.62;5.55;;;;;;;16.05;68.96;100289.79;1798771;79;20868;-88
2022/09/14 10:02:45;;;;;;;5.90;5.35;;;;;;;16.06;69.15;100293.27;1798822;79;20903;-88
2022/09/14 10:05:27;;;;;;;6.35;5.75;;;;;;;16.06;69.15;100293.27;1796048;79;20939;-89
2022/09/14 10:08:04;;;;;;;;;;;;;;;16.09;69.38;100291.16;1801312;79;21033;-88
2022/09/14 10:10:39;;;;;;;22.22;18.70;;;;;;;16.11;68.97;100295.01;1761034;80;21894;-88
2022/09/14 10:13:22;;;;;;;59.05;51.45;;;;;;;16.06;68.92;100292.77;1754889;81;21049;-89
2022/09/14 10:15:48;;;;;;;19.32;16.67;;;;;;;16.02;69.30;100283.92;1753241;81;20892;-87
2022/09/14 10:18:17;;;;;;;13.62;10.40;;;;;;;16.03;69.51;100277.19;1754583;81;21006;-86
2022/09/14 10:21:06;;;;;;;6.15;5.17;;;;;;;16.03;69.51;100277.19;1754550;81;21452;-88
2022/09/14 10:23:36;;;;;;;6.28;5.10;;;;;;;16.16;69.18;100272.94;1756504;81;21531;-87
2022/09/14 10:26:19;;;;;;;6.15;5.50;;;;;;;16.16;69.18;100272.94;1760157;77;20996;-88
2022/09/14 10:28:47;;;;;;;5.80;5.30;;;;;;;16.23;69.29;100275.88;1746639;78;20977;-88
2022/09/14 10:31:23;;;;;;;4.55;4.15;;;;;;;16.30;69.17;100277.02;1771152;81;20901;-90
2022/09/14 10:33:57;;;;;;;4.62;4.22;;;;;;;16.34;68.85;100269.12;1771110;81;20881;-88
2022/09/14 10:36:37;;;;;;;5.08;4.58;;;;;;;16.37;68.49;100273.67;1770568;81;21864;-89
2022/09/14 10:39:35;;;;;;;5.17;4.33;;;;;;;16.41;68.43;100275.56;1770075;81;20932;-88
2022/09/14 10:42:09;;;;;;;3.92;3.55;;;;;;;16.45;68.08;100270.81;1770309;81;20941;-89
2022/09/14 10:44:56;;;;;;;39.70;32.93;;;;;;;16.47;67.62;100269.70;1768277;81;21421;-88
2022/09/14 10:48:12;;;;;;;8.00;7.17;;;;;;;16.51;67.73;100271.09;1771273;81;20920;-90
2022/09/14 10:51:24;;;;;;;6.15;5.55;;;;;;;16.55;67.17;100263.73;1770364;81;21147;-89
2022/09/14 10:54:02;;;;;;;4.95;4.17;;;;;;;16.61;66.29;100263.64;1758783;80;20878;-90
2022/09/14 10:57:03;;;;;;;6.95;6.25;;;;;;;16.61;66.29;100263.64;1770461;81;20889;-90
2022/09/14 10:59:38;;;;;;;8.13;6.45;;;;;;;16.67;65.96;100262.59;1770088;81;20917;-89
2022/09/14 11:02:25;;;;;;;6.97;5.33;;;;;;;16.85;65.65;100261.91;1770178;81;20968;-89
2022/09/14 11:05:09;;;;;;;4.22;3.83;;;;;;;17.08;65.24;100255.83;1771147;81;21790;-89
2022/09/14 11:08:01;;;;;;;4.20;3.83;;;;;;;17.56;62.96;100255.67;1771383;81;20921;-89
2022/09/14 11:11:06;;;;;;;25.35;22.75;;;;;;;17.56;62.96;100255.67;1770504;81;21386;-89
2022/09/14 11:14:00;;;;;;;11.60;10.37;;;;;;;17.77;62.41;100260.72;1769684;81;20948;-88
2022/09/14 11:16:49;;;;;;;12.80;11.00;;;;;;;17.90;60.48;100255.11;1770716;81;21543;-88
2022/09/14 11:20:00;;;;;;;9.63;8.20;;;;;;;17.96;59.50;100256.31;1767238;81;21904;-90
2022/09/14 11:22:41;;;;;;;8.78;6.10;;;;;;;18.01;59.32;100259.38;1766214;81;21454;-88
2022/09/14 11:25:18;;;;;;;31.33;26.90;;;;;;;17.98;58.67;100255.17;1760995;80;20929;-89
2022/09/14 11:27:53;;;;;;;34.75;31.10;;;;;;;17.99;58.34;100260.84;1728642;81;20923;-88
2022/09/14 11:30:23;;;;;;;5.60;5.08;;;;;;;18.11;58.58;100260.63;1754798;81;20935;-89
2022/09/14 11:33:04;;;;;;;7.62;6.12;;;;;;;18.26;58.12;100256.98;1755202;81;21129;-90
2022/09/14 11:35:42;;;;;;;5.22;3.90;;;;;;;18.36;57.33;100248.43;1754741;81;20900;-89
2022/09/14 11:38:21;;;;;;;4.87;3.40;;;;;;;18.50;56.86;100251.89;1754867;81;20907;-88
2022/09/14 11:41:03;;;;;;;3.83;3.52;;;;;;;18.60;56.58;100247.31;1754929;81;20947;-89
2022/09/14 11:43:53;;;;;;;7.28;3.15;;;;;;;18.69;56.74;100253.53;1755102;80;21586;-89
2022/09/14 11:46:40;;;;;;;4.53;2.72;;;;;;;18.69;55.85;100245.56;1756949;81;21829;-89
2022/09/14 11:49:15;;;;;;;2.85;2.65;;;;;;;18.68;55.45;100239.92;1756766;78;20958;-88
2022/09/14 11:52:09;;;;;;;2.92;2.65;;;;;;;18.61;55.01;100245.02;1727831;81;21038;-92
2022/09/14 11:54:39;;;;;;;3.22;2.45;;;;;;;18.53;54.87;100236.97;1748862;81;20900;-88